sensor_id;sensor_type;location;lat;lon;timestamp;pressure;altitude;pressure_sealevel;temperature;humidity
21728;BME280;11026;50.560;17.852;2022-12-18T00:02:02;101189.22;;;-5.60;100.00
21728;BME280;11026;50.560;17.852;2022-12-18T00:04:32;101198.13;;;-5.72;100.00
21728;BME280;11026;50.560;17.852;2022-12-18T00:07:00;101200.72;;;-5.54;100.00
21728;BME280;11026;50.560;17.852;2022-12-18T00:09:29;101205.56;;;-5.42;100.00
21728;BME280;11026;50.560;17.852;2022-12-18T00:12:06;101203.88;;;-5.41;100.00
21728;BME280;11026;50.560;17.852;2022-12-18T00:14:42;101213.50;;;-5.37;100.00
21728;BME280;11026;50.560;17.852;2022-12-18T00:17:09;101214.22;;;-5.22;100.00
21728;BME280;11026;50.560;17.852;2022-12-18T00:19:36;101210.88;;;-5.20;100.00
21728;BME280;11026;50.560;17.852;2022-12-18T00:22:04;101214.53;;;-5.34;100.00
21728;BME280;11026;50.560;17.852;2022-12-18T00:24:38;101222.66;;;-5.44;100.00
21728;BME280;11026;50.560;17.852;2022-12-18T00:27:05;101217.19;;;-5.32;100.00
21728;BME280;11026;50.560;17.852;2022-12-18T00:29:33;101227.59;;;-5.49;99.73
21728;BME280;11026;50.560;17.852;2022-12-18T00:32:00;101229.56;;;-5.43;99.61
21728;BME280;11026;50.560;17.852;2022-12-18T00:34:27;101231.34;;;-5.42;99.25
21728;BME280;11026;50.560;17.852;2022-12-18T00:36:55;101228.38;;;-5.32;99.15
21728;BME280;11026;50.560;17.852;2022-12-18T00:39:22;101228.28;;;-5.15;98.92
21728;BME280;11026;50.560;17.852;2022-12-18T00:41:50;101239.06;;;-5.24;98.55
21728;BME280;11026;50.560;17.852;2022-12-18T00:44:36;101246.06;;;-5.39;97.99
21728;BME280;11026;50.560;17.852;2022-12-18T00:47:03;101246.88;;;-5.23;97.86
21728;BME280;11026;50.560;17.852;2022-12-18T00:49:31;101250.94;;;-5.28;97.57
21728;BME280;11026;50.560;17.852;2022-12-18T00:51:58;101243.78;;;-5.51;97.20
21728;BME280;11026;50.560;17.852;2022-12-18T00:54:27;101248.00;;;-5.53;97.58
21728;BME280;11026;50.560;17.852;2022-12-18T00:56:55;101254.84;;;-5.36;97.67
21728;BME280;11026;50.560;17.852;2022-12-18T00:59:23;101259.03;;;-5.56;97.43
21728;BME280;11026;50.560;17.852;2022-12-18T01:01:50;101265.25;;;-5.52;97.70
21728;BME280;11026;50.560;17.852;2022-12-18T01:04:17;101261.84;;;-5.33;97.43
21728;BME280;11026;50.560;17.852;2022-12-18T01:06:45;101266.56;;;-5.25;97.07
21728;BME280;11026;50.560;17.852;2022-12-18T01:09:13;101275.28;;;-5.23;97.01
21728;BME280;11026;50.560;17.852;2022-12-18T01:11:40;101266.25;;;-5.13;96.88
21728;BME280;11026;50.560;17.852;2022-12-18T01:14:08;101275.22;;;-5.05;96.53
21728;BME280;11026;50.560;17.852;2022-12-18T01:16:35;101271.88;;;-5.22;96.31
21728;BME280;11026;50.560;17.852;2022-12-18T01:19:02;101266.41;;;-5.10;96.12
21728;BME280;11026;50.560;17.852;2022-12-18T01:21:30;101269.50;;;-5.17;95.67
21728;BME280;11026;50.560;17.852;2022-12-18T01:23:57;101269.66;;;-5.14;95.62
21728;BME280;11026;50.560;17.852;2022-12-18T01:26:25;101284.25;;;-5.14;95.65
21728;BME280;11026;50.560;17.852;2022-12-18T01:28:55;101282.19;;;-5.22;95.54
21728;BME280;11026;50.560;17.852;2022-12-18T01:31:30;101282.94;;;-5.42;95.98
21728;BME280;11026;50.560;17.852;2022-12-18T01:34:00;101303.00;;;-5.71;96.32
21728;BME280;11026;50.560;17.852;2022-12-18T01:36:31;101298.88;;;-5.85;96.94
21728;BME280;11026;50.560;17.852;2022-12-18T01:39:01;101297.13;;;-5.86;97.73
21728;BME280;11026;50.560;17.852;2022-12-18T01:41:30;101291.34;;;-5.46;98.16
21728;BME280;11026;50.560;17.852;2022-12-18T01:47:46;101301.50;;;-5.31;97.92
21728;BME280;11026;50.560;17.852;2022-12-18T01:52:52;101302.38;;;-5.13;97.45
21728;BME280;11026;50.560;17.852;2022-12-18T01:55:26;101304.81;;;-5.16;96.53
21728;BME280;11026;50.560;17.852;2022-12-18T01:57:56;101309.84;;;-5.37;96.44
21728;BME280;11026;50.560;17.852;2022-12-18T02:00:26;101310.25;;;-5.63;96.67
21728;BME280;11026;50.560;17.852;2022-12-18T02:02:55;101316.06;;;-5.68;97.58
21728;BME280;11026;50.560;17.852;2022-12-18T02:05:36;101315.66;;;-5.41;97.54
21728;BME280;11026;50.560;17.852;2022-12-18T02:08:29;101316.69;;;-5.20;97.34
21728;BME280;11026;50.560;17.852;2022-12-18T02:16:52;101327.63;;;-5.59;96.52
21728;BME280;11026;50.560;17.852;2022-12-18T02:19:43;101335.13;;;-5.82;97.28
21728;BME280;11026;50.560;17.852;2022-12-18T02:25:05;101337.84;;;-5.79;98.21
21728;BME280;11026;50.560;17.852;2022-12-18T02:27:39;101344.03;;;-5.41;98.11
21728;BME280;11026;50.560;17.852;2022-12-18T02:30:07;101336.28;;;-5.41;97.57
21728;BME280;11026;50.560;17.852;2022-12-18T02:32:39;101328.16;;;-5.31;97.20
21728;BME280;11026;50.560;17.852;2022-12-18T02:35:12;101330.59;;;-5.52;97.02
21728;BME280;11026;50.560;17.852;2022-12-18T02:37:42;101331.69;;;-5.47;97.02
21728;BME280;11026;50.560;17.852;2022-12-18T02:40:12;101339.81;;;-5.39;96.86
21728;BME280;11026;50.560;17.852;2022-12-18T02:42:41;101343.88;;;-5.62;97.18
21728;BME280;11026;50.560;17.852;2022-12-18T02:45:09;101344.53;;;-5.82;97.48
21728;BME280;11026;50.560;17.852;2022-12-18T02:47:39;101347.69;;;-5.88;98.07
21728;BME280;11026;50.560;17.852;2022-12-18T02:50:25;101355.63;;;-5.67;98.45
21728;BME280;11026;50.560;17.852;2022-12-18T03:04:30;101372.94;;;-5.64;97.81
21728;BME280;11026;50.560;17.852;2022-12-18T03:07:03;101372.50;;;-5.74;98.10
21728;BME280;11026;50.560;17.852;2022-12-18T03:09:38;101375.22;;;-5.87;98.70
21728;BME280;11026;50.560;17.852;2022-12-18T03:12:35;101376.72;;;-5.74;98.63
21728;BME280;11026;50.560;17.852;2022-12-18T03:15:17;101381.81;;;-5.76;98.46
21728;BME280;11026;50.560;17.852;2022-12-18T03:17:55;101373.03;;;-5.79;98.41
21728;BME280;11026;50.560;17.852;2022-12-18T03:20:25;101386.66;;;-5.65;98.82
21728;BME280;11026;50.560;17.852;2022-12-18T03:22:59;101383.88;;;-5.52;98.82
21728;BME280;11026;50.560;17.852;2022-12-18T03:25:30;101385.97;;;-5.45;98.71
21728;BME280;11026;50.560;17.852;2022-12-18T03:27:59;101385.13;;;-5.44;98.76
21728;BME280;11026;50.560;17.852;2022-12-18T03:30:29;101381.25;;;-5.36;99.05
21728;BME280;11026;50.560;17.852;2022-12-18T03:35:42;101381.69;;;-5.27;99.07
21728;BME280;11026;50.560;17.852;2022-12-18T03:38:10;101389.91;;;-5.17;99.26
21728;BME280;11026;50.560;17.852;2022-12-18T03:40:59;101381.56;;;-5.12;98.82
21728;BME280;11026;50.560;17.852;2022-12-18T03:43:44;101381.50;;;-4.96;98.17
21728;BME280;11026;50.560;17.852;2022-12-18T03:46:28;101377.88;;;-4.99;97.29
21728;BME280;11026;50.560;17.852;2022-12-18T03:49:12;101392.94;;;-5.08;96.66
21728;BME280;11026;50.560;17.852;2022-12-18T03:52:06;101392.25;;;-5.04;96.90
21728;BME280;11026;50.560;17.852;2022-12-18T03:54:36;101393.13;;;-5.04;96.82
21728;BME280;11026;50.560;17.852;2022-12-18T03:57:09;101392.16;;;-5.24;96.79
21728;BME280;11026;50.560;17.852;2022-12-18T03:59:40;101400.16;;;-5.53;96.03
21728;BME280;11026;50.560;17.852;2022-12-18T04:02:08;101405.34;;;-5.35;96.23
21728;BME280;11026;50.560;17.852;2022-12-18T04:04:38;101411.47;;;-5.33;96.04
21728;BME280;11026;50.560;17.852;2022-12-18T04:07:07;101419.28;;;-5.32;95.97
21728;BME280;11026;50.560;17.852;2022-12-18T04:09:36;101418.56;;;-5.11;95.45
21728;BME280;11026;50.560;17.852;2022-12-18T04:12:05;101416.38;;;-5.22;95.19
21728;BME280;11026;50.560;17.852;2022-12-18T04:14:34;101433.63;;;-5.21;95.22
21728;BME280;11026;50.560;17.852;2022-12-18T04:17:03;101423.28;;;-5.21;95.42
21728;BME280;11026;50.560;17.852;2022-12-18T04:19:30;101437.41;;;-5.14;95.50
21728;BME280;11026;50.560;17.852;2022-12-18T04:21:58;101438.88;;;-5.01;95.52
21728;BME280;11026;50.560;17.852;2022-12-18T04:24:26;101449.88;;;-5.05;95.50
21728;BME280;11026;50.560;17.852;2022-12-18T04:26:53;101449.44;;;-5.31;95.32
21728;BME280;11026;50.560;17.852;2022-12-18T04:29:27;101454.63;;;-5.47;95.62
21728;BME280;11026;50.560;17.852;2022-12-18T04:31:55;101454.34;;;-5.35;96.00
21728;BME280;11026;50.560;17.852;2022-12-18T04:34:22;101449.16;;;-5.19;96.30
21728;BME280;11026;50.560;17.852;2022-12-18T04:36:50;101455.47;;;-5.14;96.10
21728;BME280;11026;50.560;17.852;2022-12-18T04:39:18;101451.34;;;-4.92;95.34
21728;BME280;11026;50.560;17.852;2022-12-18T04:41:45;101457.44;;;-5.08;94.60
21728;BME280;11026;50.560;17.852;2022-12-18T04:44:13;101450.19;;;-5.15;94.49
21728;BME280;11026;50.560;17.852;2022-12-18T04:46:41;101452.88;;;-5.14;94.76
21728;BME280;11026;50.560;17.852;2022-12-18T04:49:10;101455.47;;;-5.14;95.25
21728;BME280;11026;50.560;17.852;2022-12-18T04:51:38;101455.03;;;-5.05;95.49
21728;BME280;11026;50.560;17.852;2022-12-18T04:54:06;101458.72;;;-5.00;95.63
21728;BME280;11026;50.560;17.852;2022-12-18T04:56:33;101462.28;;;-4.98;95.39
21728;BME280;11026;50.560;17.852;2022-12-18T04:59:01;101463.06;;;-4.99;95.28
21728;BME280;11026;50.560;17.852;2022-12-18T05:01:29;101462.41;;;-4.95;95.03
21728;BME280;11026;50.560;17.852;2022-12-18T05:04:01;101469.47;;;-5.09;94.83
21728;BME280;11026;50.560;17.852;2022-12-18T05:06:29;101470.06;;;-5.14;94.86
21728;BME280;11026;50.560;17.852;2022-12-18T05:08:57;101464.75;;;-5.00;94.88
21728;BME280;11026;50.560;17.852;2022-12-18T05:11:25;101460.19;;;-5.05;94.96
21728;BME280;11026;50.560;17.852;2022-12-18T05:13:53;101461.22;;;-5.02;95.09
21728;BME280;11026;50.560;17.852;2022-12-18T05:16:21;101469.06;;;-4.82;95.06
21728;BME280;11026;50.560;17.852;2022-12-18T05:18:50;101456.72;;;-4.88;94.70
21728;BME280;11026;50.560;17.852;2022-12-18T05:21:17;101454.63;;;-4.79;94.68
21728;BME280;11026;50.560;17.852;2022-12-18T05:23:45;101459.03;;;-4.94;94.13
21728;BME280;11026;50.560;17.852;2022-12-18T05:26:17;101464.41;;;-4.89;93.72
21728;BME280;11026;50.560;17.852;2022-12-18T05:28:46;101470.97;;;-4.96;92.81
21728;BME280;11026;50.560;17.852;2022-12-18T05:31:14;101471.84;;;-4.96;92.95
21728;BME280;11026;50.560;17.852;2022-12-18T05:33:41;101475.16;;;-4.98;93.37
21728;BME280;11026;50.560;17.852;2022-12-18T05:36:10;101480.34;;;-4.98;93.73
21728;BME280;11026;50.560;17.852;2022-12-18T05:38:39;101476.28;;;-4.93;94.20
21728;BME280;11026;50.560;17.852;2022-12-18T05:41:07;101483.25;;;-4.74;94.00
21728;BME280;11026;50.560;17.852;2022-12-18T05:43:35;101484.47;;;-4.84;93.11
21728;BME280;11026;50.560;17.852;2022-12-18T05:46:05;101481.88;;;-5.02;93.06
21728;BME280;11026;50.560;17.852;2022-12-18T05:48:33;101480.00;;;-5.04;93.81
21728;BME280;11026;50.560;17.852;2022-12-18T05:51:09;101489.03;;;-4.96;93.98
21728;BME280;11026;50.560;17.852;2022-12-18T05:53:36;101498.19;;;-4.85;94.16
21728;BME280;11026;50.560;17.852;2022-12-18T05:56:08;101498.84;;;-4.89;94.31
21728;BME280;11026;50.560;17.852;2022-12-18T05:58:37;101494.56;;;-4.88;94.37
21728;BME280;11026;50.560;17.852;2022-12-18T06:01:17;101501.09;;;-4.79;94.52
21728;BME280;11026;50.560;17.852;2022-12-18T06:03:44;101510.94;;;-4.88;94.46
21728;BME280;11026;50.560;17.852;2022-12-18T06:06:15;101511.25;;;-4.82;94.60
21728;BME280;11026;50.560;17.852;2022-12-18T06:08:43;101515.00;;;-4.93;94.77
21728;BME280;11026;50.560;17.852;2022-12-18T06:11:16;101515.78;;;-4.78;94.06
21728;BME280;11026;50.560;17.852;2022-12-18T06:13:46;101527.03;;;-4.93;93.40
21728;BME280;11026;50.560;17.852;2022-12-18T06:16:13;101517.59;;;-4.93;93.19
21728;BME280;11026;50.560;17.852;2022-12-18T06:18:41;101535.72;;;-4.91;92.91
21728;BME280;11026;50.560;17.852;2022-12-18T06:21:08;101533.06;;;-4.93;92.72
21728;BME280;11026;50.560;17.852;2022-12-18T06:23:36;101541.25;;;-4.84;92.65
21728;BME280;11026;50.560;17.852;2022-12-18T06:26:12;101539.13;;;-4.92;92.66
21728;BME280;11026;50.560;17.852;2022-12-18T06:28:40;101537.03;;;-5.00;93.15
21728;BME280;11026;50.560;17.852;2022-12-18T06:31:08;101534.34;;;-4.85;93.08
21728;BME280;11026;50.560;17.852;2022-12-18T06:33:41;101541.88;;;-4.72;92.33
21728;BME280;11026;50.560;17.852;2022-12-18T06:36:11;101547.84;;;-4.90;91.27
21728;BME280;11026;50.560;17.852;2022-12-18T06:38:40;101547.50;;;-4.97;91.62
21728;BME280;11026;50.560;17.852;2022-12-18T06:41:18;101550.16;;;-4.79;91.40
21728;BME280;11026;50.560;17.852;2022-12-18T06:43:45;101549.66;;;-4.88;90.82
21728;BME280;11026;50.560;17.852;2022-12-18T06:46:13;101544.38;;;-5.07;91.23
21728;BME280;11026;50.560;17.852;2022-12-18T06:48:40;101554.88;;;-5.04;91.93
21728;BME280;11026;50.560;17.852;2022-12-18T06:51:08;101561.06;;;-5.01;92.29
21728;BME280;11026;50.560;17.852;2022-12-18T06:53:35;101564.38;;;-4.87;92.56
21728;BME280;11026;50.560;17.852;2022-12-18T06:56:05;101562.75;;;-4.85;92.24
21728;BME280;11026;50.560;17.852;2022-12-18T06:58:37;101570.41;;;-4.86;92.24
21728;BME280;11026;50.560;17.852;2022-12-18T07:01:07;101565.00;;;-4.75;91.88
21728;BME280;11026;50.560;17.852;2022-12-18T07:03:34;101564.84;;;-4.78;91.29
21728;BME280;11026;50.560;17.852;2022-12-18T07:06:04;101568.53;;;-4.73;90.72
21728;BME280;11026;50.560;17.852;2022-12-18T07:08:32;101564.38;;;-4.87;90.50
21728;BME280;11026;50.560;17.852;2022-12-18T07:11:03;101567.25;;;-4.81;90.90
21728;BME280;11026;50.560;17.852;2022-12-18T07:13:31;101572.63;;;-4.76;90.79
21728;BME280;11026;50.560;17.852;2022-12-18T07:16:17;101576.69;;;-4.81;90.85
21728;BME280;11026;50.560;17.852;2022-12-18T07:18:54;101578.41;;;-4.82;90.48
21728;BME280;11026;50.560;17.852;2022-12-18T07:21:24;101584.22;;;-4.86;90.55
21728;BME280;11026;50.560;17.852;2022-12-18T07:23:51;101597.38;;;-4.98;90.45
21728;BME280;11026;50.560;17.852;2022-12-18T07:26:21;101592.63;;;-5.06;90.54
21728;BME280;11026;50.560;17.852;2022-12-18T07:28:50;101589.41;;;-5.02;90.65
21728;BME280;11026;50.560;17.852;2022-12-18T07:31:19;101595.22;;;-5.06;90.94
21728;BME280;11026;50.560;17.852;2022-12-18T07:33:48;101601.50;;;-5.01;91.47
21728;BME280;11026;50.560;17.852;2022-12-18T07:36:18;101605.78;;;-5.02;91.87
21728;BME280;11026;50.560;17.852;2022-12-18T07:38:47;101598.69;;;-5.06;91.16
21728;BME280;11026;50.560;17.852;2022-12-18T07:41:17;101614.59;;;-5.14;91.13
21728;BME280;11026;50.560;17.852;2022-12-18T07:43:45;101615.75;;;-5.08;91.50
21728;BME280;11026;50.560;17.852;2022-12-18T07:46:14;101618.13;;;-5.12;91.28
21728;BME280;11026;50.560;17.852;2022-12-18T07:48:43;101617.81;;;-5.18;91.16
21728;BME280;11026;50.560;17.852;2022-12-18T07:51:17;101617.94;;;-5.15;91.32
21728;BME280;11026;50.560;17.852;2022-12-18T07:53:46;101617.94;;;-5.15;91.22
21728;BME280;11026;50.560;17.852;2022-12-18T07:56:20;101621.34;;;-5.16;91.33
21728;BME280;11026;50.560;17.852;2022-12-18T07:58:53;101633.78;;;-5.09;91.95
21728;BME280;11026;50.560;17.852;2022-12-18T08:01:21;101630.84;;;-4.99;91.75
21728;BME280;11026;50.560;17.852;2022-12-18T08:03:48;101635.94;;;-5.01;91.53
21728;BME280;11026;50.560;17.852;2022-12-18T08:06:18;101634.97;;;-5.03;91.38
21728;BME280;11026;50.560;17.852;2022-12-18T08:08:51;101639.88;;;-4.91;91.60
21728;BME280;11026;50.560;17.852;2022-12-18T08:11:19;101645.16;;;-5.06;91.43
21728;BME280;11026;50.560;17.852;2022-12-18T08:13:47;101639.22;;;-5.03;91.88
21728;BME280;11026;50.560;17.852;2022-12-18T08:16:16;101648.13;;;-4.98;92.21
21728;BME280;11026;50.560;17.852;2022-12-18T08:18:45;101643.25;;;-4.92;91.82
21728;BME280;11026;50.560;17.852;2022-12-18T08:21:24;101650.53;;;-4.85;91.52
21728;BME280;11026;50.560;17.852;2022-12-18T08:23:53;101649.72;;;-4.84;91.39
21728;BME280;11026;50.560;17.852;2022-12-18T08:26:21;101654.72;;;-4.71;91.22
21728;BME280;11026;50.560;17.852;2022-12-18T08:28:53;101649.41;;;-4.74;91.38
21728;BME280;11026;50.560;17.852;2022-12-18T08:31:22;101659.88;;;-4.71;91.20
21728;BME280;11026;50.560;17.852;2022-12-18T08:33:52;101659.53;;;-4.60;90.66
21728;BME280;11026;50.560;17.852;2022-12-18T08:36:21;101661.16;;;-4.62;90.37
21728;BME280;11026;50.560;17.852;2022-12-18T08:38:52;101666.56;;;-4.58;90.17
21728;BME280;11026;50.560;17.852;2022-12-18T08:41:20;101662.38;;;-4.72;89.60
21728;BME280;11026;50.560;17.852;2022-12-18T08:43:47;101664.00;;;-4.74;89.29
21728;BME280;11026;50.560;17.852;2022-12-18T08:46:37;101670.88;;;-4.75;89.17
21728;BME280;11026;50.560;17.852;2022-12-18T08:49:07;101667.31;;;-4.77;88.89
21728;BME280;11026;50.560;17.852;2022-12-18T08:51:35;101673.75;;;-4.68;89.22
21728;BME280;11026;50.560;17.852;2022-12-18T08:54:03;101677.63;;;-4.60;89.44
21728;BME280;11026;50.560;17.852;2022-12-18T08:56:34;101666.13;;;-4.49;89.23
21728;BME280;11026;50.560;17.852;2022-12-18T08:59:01;101679.13;;;-4.48;88.71
21728;BME280;11026;50.560;17.852;2022-12-18T09:01:28;101678.56;;;-4.42;88.46
21728;BME280;11026;50.560;17.852;2022-12-18T09:03:56;101676.94;;;-4.40;88.73
21728;BME280;11026;50.560;17.852;2022-12-18T09:06:24;101681.16;;;-4.24;88.73
21728;BME280;11026;50.560;17.852;2022-12-18T09:08:51;101684.94;;;-4.35;87.77
21728;BME280;11026;50.560;17.852;2022-12-18T09:11:22;101682.53;;;-4.49;87.80
21728;BME280;11026;50.560;17.852;2022-12-18T09:13:51;101685.03;;;-4.50;87.91
21728;BME280;11026;50.560;17.852;2022-12-18T09:16:19;101686.00;;;-4.48;88.01
21728;BME280;11026;50.560;17.852;2022-12-18T09:18:47;101678.38;;;-4.29;88.33
21728;BME280;11026;50.560;17.852;2022-12-18T09:21:20;101685.56;;;-4.05;88.10
21728;BME280;11026;50.560;17.852;2022-12-18T09:23:52;101682.16;;;-4.04;86.63
21728;BME280;11026;50.560;17.852;2022-12-18T09:26:21;101683.34;;;-4.15;86.22
21728;BME280;11026;50.560;17.852;2022-12-18T09:28:48;101690.44;;;-4.11;86.69
21728;BME280;11026;50.560;17.852;2022-12-18T09:31:20;101690.72;;;-4.23;86.25
21728;BME280;11026;50.560;17.852;2022-12-18T09:33:47;101682.41;;;-4.34;85.91
21728;BME280;11026;50.560;17.852;2022-12-18T09:36:16;101675.16;;;-4.41;86.61
21728;BME280;11026;50.560;17.852;2022-12-18T09:38:44;101670.09;;;-4.22;87.49
21728;BME280;11026;50.560;17.852;2022-12-18T09:44:16;101678.03;;;-4.18;87.01
21728;BME280;11026;50.560;17.852;2022-12-18T09:46:55;101676.22;;;-4.37;86.88
21728;BME280;11026;50.560;17.852;2022-12-18T09:49:29;101676.41;;;-4.51;86.86
21728;BME280;11026;50.560;17.852;2022-12-18T09:57:33;101661.94;;;-4.63;87.90
21728;BME280;11026;50.560;17.852;2022-12-18T10:00:14;101653.88;;;-4.53;87.92
21728;BME280;11026;50.560;17.852;2022-12-18T10:02:42;101653.22;;;-4.49;88.17
21728;BME280;11026;50.560;17.852;2022-12-18T10:05:45;101652.84;;;-4.57;87.68
21728;BME280;11026;50.560;17.852;2022-12-18T10:08:13;101643.34;;;-4.74;88.09
21728;BME280;11026;50.560;17.852;2022-12-18T10:10:49;101643.72;;;-4.50;88.42
21728;BME280;11026;50.560;17.852;2022-12-18T10:21:05;101623.72;;;-4.71;87.89
21728;BME280;11026;50.560;17.852;2022-12-18T10:23:57;101622.84;;;-4.71;88.12
21728;BME280;11026;50.560;17.852;2022-12-18T10:26:28;101614.50;;;-4.65;88.64
21728;BME280;11026;50.560;17.852;2022-12-18T10:29:00;101621.72;;;-4.42;89.14
21728;BME280;11026;50.560;17.852;2022-12-18T10:31:31;101617.00;;;-4.33;88.79
21728;BME280;11026;50.560;17.852;2022-12-18T10:33:58;101620.19;;;-4.21;88.27
21728;BME280;11026;50.560;17.852;2022-12-18T10:36:28;101635.69;;;-4.21;87.39
21728;BME280;11026;50.560;17.852;2022-12-18T10:39:14;101631.13;;;-4.08;86.89
21728;BME280;11026;50.560;17.852;2022-12-18T10:41:42;101634.44;;;-3.93;86.66
21728;BME280;11026;50.560;17.852;2022-12-18T10:44:21;101636.81;;;-4.15;86.07
21728;BME280;11026;50.560;17.852;2022-12-18T10:47:03;101631.66;;;-4.15;85.98
21728;BME280;11026;50.560;17.852;2022-12-18T10:49:45;101631.50;;;-4.01;86.03
21728;BME280;11026;50.560;17.852;2022-12-18T10:52:25;101638.88;;;-3.73;85.75
21728;BME280;11026;50.560;17.852;2022-12-18T10:54:59;101633.84;;;-3.69;85.02
21728;BME280;11026;50.560;17.852;2022-12-18T10:57:29;101638.50;;;-3.62;84.60
21728;BME280;11026;50.560;17.852;2022-12-18T10:59:59;101637.41;;;-3.85;83.65
21728;BME280;11026;50.560;17.852;2022-12-18T11:02:28;101637.53;;;-4.00;83.36
21728;BME280;11026;50.560;17.852;2022-12-18T11:05:00;101642.22;;;-4.45;84.09
21728;BME280;11026;50.560;17.852;2022-12-18T11:07:48;101651.34;;;-4.52;85.27
21728;BME280;11026;50.560;17.852;2022-12-18T11:10:18;101645.53;;;-4.48;85.86
21728;BME280;11026;50.560;17.852;2022-12-18T11:12:46;101640.13;;;-4.52;86.40
21728;BME280;11026;50.560;17.852;2022-12-18T11:15:26;101635.59;;;-4.40;86.63
21728;BME280;11026;50.560;17.852;2022-12-18T11:17:54;101639.91;;;-4.23;87.07
21728;BME280;11026;50.560;17.852;2022-12-18T11:20:31;101639.03;;;-4.05;87.05
21728;BME280;11026;50.560;17.852;2022-12-18T11:23:01;101636.09;;;-3.95;86.24
21728;BME280;11026;50.560;17.852;2022-12-18T11:25:31;101644.03;;;-3.73;86.19
21728;BME280;11026;50.560;17.852;2022-12-18T11:28:36;101646.56;;;-3.74;84.80
21728;BME280;11026;50.560;17.852;2022-12-18T11:31:27;101654.09;;;-3.79;84.09
21728;BME280;11026;50.560;17.852;2022-12-18T11:34:16;101647.44;;;-3.74;84.22
21728;BME280;11026;50.560;17.852;2022-12-18T11:36:57;101664.16;;;-4.03;84.14
21728;BME280;11026;50.560;17.852;2022-12-18T11:39:45;101661.34;;;-3.89;85.08
21728;BME280;11026;50.560;17.852;2022-12-18T11:45:22;101660.59;;;-4.23;84.17
21728;BME280;11026;50.560;17.852;2022-12-18T11:48:03;101655.25;;;-4.26;84.96
21728;BME280;11026;50.560;17.852;2022-12-18T11:50:51;101663.84;;;-4.09;85.09
21728;BME280;11026;50.560;17.852;2022-12-18T11:53:19;101661.03;;;-4.13;84.98
21728;BME280;11026;50.560;17.852;2022-12-18T11:58:51;101662.81;;;-3.77;84.65
21728;BME280;11026;50.560;17.852;2022-12-18T12:19:15;101666.09;;;-4.67;86.16
21728;BME280;11026;50.560;17.852;2022-12-18T12:21:43;101659.38;;;-4.63;87.03
21728;BME280;11026;50.560;17.852;2022-12-18T12:27:25;101658.75;;;-4.92;87.34
21728;BME280;11026;50.560;17.852;2022-12-18T12:33:22;101668.03;;;-4.96;89.17
21728;BME280;11026;50.560;17.852;2022-12-18T12:38:41;101660.44;;;-4.76;89.15
21728;BME280;11026;50.560;17.852;2022-12-18T12:41:22;101668.91;;;-5.11;89.04
21728;BME280;11026;50.560;17.852;2022-12-18T12:44:16;101669.41;;;-5.18;89.15
21728;BME280;11026;50.560;17.852;2022-12-18T12:46:46;101672.75;;;-5.36;89.30
21728;BME280;11026;50.560;17.852;2022-12-18T12:49:18;101664.97;;;-5.21;89.47
21728;BME280;11026;50.560;17.852;2022-12-18T12:52:07;101668.13;;;-5.10;89.97
21728;BME280;11026;50.560;17.852;2022-12-18T12:54:38;101667.78;;;-4.84;90.10
21728;BME280;11026;50.560;17.852;2022-12-18T12:57:31;101662.28;;;-4.57;89.37
21728;BME280;11026;50.560;17.852;2022-12-18T13:00:08;101658.50;;;-4.64;88.48
21728;BME280;11026;50.560;17.852;2022-12-18T13:02:46;101662.78;;;-4.64;88.34
21728;BME280;11026;50.560;17.852;2022-12-18T13:05:38;101663.72;;;-4.46;88.43
21728;BME280;11026;50.560;17.852;2022-12-18T13:08:10;101666.53;;;-4.41;87.97
21728;BME280;11026;50.560;17.852;2022-12-18T13:10:42;101655.41;;;-4.23;87.79
21728;BME280;11026;50.560;17.852;2022-12-18T13:13:14;101656.75;;;-4.31;86.61
21728;BME280;11026;50.560;17.852;2022-12-18T13:16:04;101652.88;;;-4.39;86.56
21728;BME280;11026;50.560;17.852;2022-12-18T13:18:34;101655.75;;;-4.51;86.32
21728;BME280;11026;50.560;17.852;2022-12-18T13:21:10;101653.19;;;-4.83;86.73
21728;BME280;11026;50.560;17.852;2022-12-18T13:23:49;101663.75;;;-4.95;87.46
21728;BME280;11026;50.560;17.852;2022-12-18T13:28:53;101659.09;;;-5.18;88.62
21728;BME280;11026;50.560;17.852;2022-12-18T13:34:22;101676.00;;;-5.24;90.09
21728;BME280;11026;50.560;17.852;2022-12-18T13:36:55;101674.41;;;-5.05;90.45
21728;BME280;11026;50.560;17.852;2022-12-18T13:39:30;101677.31;;;-4.99;90.31
21728;BME280;11026;50.560;17.852;2022-12-18T13:45:39;101673.09;;;-5.30;90.25
21728;BME280;11026;50.560;17.852;2022-12-18T13:48:19;101675.50;;;-5.33;90.59
21728;BME280;11026;50.560;17.852;2022-12-18T13:51:01;101673.75;;;-5.34;90.60
21728;BME280;11026;50.560;17.852;2022-12-18T13:53:34;101671.47;;;-5.44;90.79
21728;BME280;11026;50.560;17.852;2022-12-18T13:56:05;101674.69;;;-5.48;91.00
21728;BME280;11026;50.560;17.852;2022-12-18T13:58:32;101668.06;;;-5.43;91.18
21728;BME280;11026;50.560;17.852;2022-12-18T14:01:00;101671.72;;;-5.39;91.13
21728;BME280;11026;50.560;17.852;2022-12-18T14:03:30;101661.81;;;-5.32;90.93
21728;BME280;11026;50.560;17.852;2022-12-18T14:06:07;101676.22;;;-5.35;90.67
21728;BME280;11026;50.560;17.852;2022-12-18T14:08:39;101681.75;;;-5.29;90.28
21728;BME280;11026;50.560;17.852;2022-12-18T14:11:20;101675.22;;;-5.23;90.37
21728;BME280;11026;50.560;17.852;2022-12-18T14:13:52;101669.31;;;-5.04;90.23
21728;BME280;11026;50.560;17.852;2022-12-18T14:16:19;101670.22;;;-4.87;89.16
21728;BME280;11026;50.560;17.852;2022-12-18T14:18:57;101667.78;;;-4.84;88.33
21728;BME280;11026;50.560;17.852;2022-12-18T14:21:40;101666.50;;;-4.76;87.81
21728;BME280;11026;50.560;17.852;2022-12-18T14:24:21;101673.13;;;-4.81;87.13
21728;BME280;11026;50.560;17.852;2022-12-18T14:26:49;101673.13;;;-4.81;86.61
21728;BME280;11026;50.560;17.852;2022-12-18T14:29:24;101679.41;;;-4.92;86.42
21728;BME280;11026;50.560;17.852;2022-12-18T14:32:06;101683.75;;;-5.07;86.31
21728;BME280;11026;50.560;17.852;2022-12-18T14:34:52;101679.41;;;-5.08;86.20